Airfield :
LOGIN :

Register | Disclaimer

   EN    FR    IT 

 










Legend :    VFR   Marginal VFR   IFR   Intensive IFR   Very Intensive IFR
Visi :
Ceiling :
>= 8 km
>= 3000ft
5 to 8 km
1000 to 3000 ft
1500m to 5 km
500 to 1000 ft
800 to 1500m
200 to 500 ft
< 800m
< 200 ft
Symbols :   Thunderstorms  Fog  Heavy snow  Heavy precipitations  Wind > 20 kt
SIGMETs :     Misc.  Thunderstorms  Icing  Turbulence  Mountain Waves  Volcanic Ashes







- Airport Elevation : 614 ft
- IATA code : CRL


EBCI - Charleroi

CURRENT METAR :
  • 211020Z 23007KT 2500 BR BKN004 02/02 Q1017 BECMG 5000 BR BKN010

EXPIRED METARs :
  • 210950Z 23006KT 2500 BR BKN004 02/01 Q1017 BECMG 5000 BR BKN010
  • 210920Z 23008KT 2500 BR BKN003 02/01 Q1016 BECMG 5000 BR BKN015
  • 210850Z 23008KT 0800 R25/1600N FG BKN002 01/01 Q1016 TEMPO 0300 FG BKN001
  • 210820Z 23007KT 0800 R25/1200N FG BKN002 01/01 Q1016 TEMPO 0300 FG BKN001
  • 210750Z 24006KT 0400 R25/0450N FG BKN001 01/00 Q1015 TEMPO 0300 FG BKN001

TAF AMD TAF EBCI
Valid from the 21 at 06:00 until the 22 at 12:00 UTC


210520Z 2106/2212 26005KT 0450 FG BKN001
BECMG 2110/2112 6000 NSW SCT005
BECMG 2114/2116 18011KT SCT006 BKN012
PROB30
TEMPO 2116/2119 2500 -RASN -SNRA SCT004 BKN006
TEMPO 2119/2202 2500 RADZ RA BKN004
BECMG 2200/2202 27009KT
PROB40
TEMPO 2202/2206 1500 BR BKN002
BECMG 2210/2212 SCT012 BKN025
No reported NOTAMs for that airfield.



MET'MAP, your aeronautical weather chart ! - Copyright ORBIFLY December 2007 - Disclaimer

ORBIFLY MET'MAP TEAM :

Programming & Development : Alexandra Zaïnal
Concept & Development : Baudouin d'Aumeries
Co-Development & Prog : Marc-Olivier Méhu
Technical & hardware support : Manuel Goepfert

Contact : metmap@orbifly.com




SOURCES & CREDITS :

   NOAA